Time;durP1;ratioP1;P1;durP2;ratioP2;P2;SDS_P1;SDS_P2;PMS_P1;PMS_P2;Temp;Humidity;BMP_temperature;BMP_pressure;BME280_temperature;BME280_humidity;BME280_pressure;Samples;Min_cycle;Max_cycle;Signal;HPM_P1;HPM_P2
2022/04/12 00:00:21;;;;;;;9.50;3.67;;;;;;;5.19;57.01;95264.69;5036034;28;20187;-90
2022/04/12 00:02:47;;;;;;;11.90;4.33;;;;;;;5.60;57.44;95328.03;5036350;28;20244;-90
2022/04/12 00:05:13;;;;;;;8.53;4.33;;;;;;;5.59;57.55;95334.22;5036691;28;20301;-89
2022/04/12 00:07:39;;;;;;;12.23;4.83;;;;;;;4.90;57.43;95226.94;5043379;28;20679;-89
2022/04/12 00:10:06;;;;;;;9.73;4.37;;;;;;;5.42;57.11;95328.25;5043420;28;20211;-90
2022/04/12 00:12:32;;;;;;;9.37;4.60;;;;;;;5.39;57.07;95332.97;5060092;28;20198;-90
2022/04/12 00:14:57;;;;;;;10.77;5.03;;;;;;;4.80;57.44;95235.91;5054130;28;20588;-89
2022/04/12 00:20:07;;;;;;;8.37;4.57;;;;;;;5.02;57.95;95276.13;5054687;28;20531;-90
2022/04/12 00:22:33;;;;;;;9.73;4.60;;;;;;;5.05;57.69;95276.63;5035866;28;20151;-90
2022/04/12 00:25:00;;;;;;;7.23;4.20;;;;;;;4.93;57.62;95255.28;5036055;28;20226;-90
2022/04/12 00:27:27;;;;;;;6.57;4.53;;;;;;;5.38;57.13;95316.50;5035822;28;20179;-90
2022/04/12 00:29:53;;;;;;;8.87;4.30;;;;;;;4.93;57.74;95244.84;5053090;28;20206;-91
2022/04/12 00:32:19;;;;;;;9.07;4.83;;;;;;;5.01;58.21;95246.63;5035731;28;20536;-91
2022/04/12 00:34:44;;;;;;;10.20;5.33;;;;;;;5.05;57.89;95257.53;5035601;28;20182;-91
2022/04/12 00:37:10;;;;;;;10.07;4.93;;;;;;;5.21;57.78;95279.19;5035623;28;20631;-91
2022/04/12 00:39:37;;;;;;;8.80;4.47;;;;;;;4.84;57.98;95229.41;5035466;28;20232;-91
2022/04/12 00:42:03;;;;;;;10.03;4.70;;;;;;;4.83;58.22;95241.63;5053395;28;20200;-91
2022/04/12 00:44:29;;;;;;;10.70;4.70;;;;;;;5.11;58.43;95290.78;5035699;28;20202;-91
2022/04/12 00:46:54;;;;;;;6.53;4.20;;;;;;;4.75;58.76;95240.81;5035409;28;20187;-90
2022/04/12 00:49:20;;;;;;;8.90;3.97;;;;;;;4.69;59.11;95241.47;5034494;28;20171;-89
2022/04/12 00:51:45;;;;;;;9.13;4.63;;;;;;;4.63;60.25;95242.94;5028341;28;20171;-89
2022/04/12 00:54:11;;;;;;;8.10;4.43;;;;;;;4.44;60.79;95214.59;5052799;28;20221;-89
2022/04/12 00:56:37;;;;;;;12.63;6.20;;;;;;;4.95;60.06;95304.66;5052805;28;20191;-90
2022/04/12 00:59:03;;;;;;;9.90;5.50;;;;;;;4.42;60.17;95240.00;5035067;28;20167;-89
2022/04/12 01:01:29;;;;;;;13.07;6.00;;;;;;;4.41;61.16;95252.22;5052975;28;20678;-89
2022/04/12 01:03:54;;;;;;;12.20;6.03;;;;;;;4.23;61.57;95219.53;5035512;28;20163;-89
2022/04/12 01:06:20;;;;;;;11.40;6.63;;;;;;;4.23;61.50;95243.78;5052963;28;20171;-89
2022/04/12 01:08:45;;;;;;;21.67;9.10;;;;;;;4.25;61.57;95246.19;5034942;28;20177;-89
2022/04/12 01:11:12;;;;;;;16.73;8.53;;;;;;;4.03;61.92;95212.03;5052862;28;20547;-88
2022/04/12 01:13:37;;;;;;;14.03;8.77;;;;;;;4.40;62.29;95283.69;5034810;28;20274;-88
2022/04/12 01:16:07;;;;;;;15.57;7.83;;;;;;;4.41;62.86;95287.94;5034644;28;20715;-89
2022/04/12 01:18:32;;;;;;;15.67;7.47;;;;;;;4.10;62.50;95238.22;5052779;28;20187;-89
2022/04/12 01:20:58;;;;;;;11.93;6.60;;;;;;;4.01;62.94;95224.38;5034971;28;20598;-88
2022/04/12 01:23:51;;;;;;;12.03;6.37;;;;;;;4.48;62.58;95301.94;5034717;28;20265;-88
2022/04/12 01:26:16;;;;;;;8.20;4.80;;;;;;;3.91;62.21;95218.50;5034624;28;20256;-88
2022/04/12 01:28:45;;;;;;;10.37;5.10;;;;;;;3.83;61.99;95213.28;5052808;28;20187;-88
2022/04/12 01:31:11;;;;;;;9.77;5.70;;;;;;;4.33;62.92;95299.13;5052350;28;20259;-88
2022/04/12 01:33:37;;;;;;;7.80;4.67;;;;;;;3.86;63.37;95217.38;5052459;28;20170;-91
2022/04/12 01:36:02;;;;;;;8.87;4.53;;;;;;;4.02;63.92;95257.25;5034709;28;20164;-89
2022/04/12 01:38:28;;;;;;;8.63;4.93;;;;;;;3.92;63.71;95245.34;5034315;28;20199;-89
2022/04/12 01:40:54;;;;;;;11.93;5.13;;;;;;;4.17;64.24;95294.72;5033729;28;20190;-89
2022/04/12 01:43:19;;;;;;;10.83;4.63;;;;;;;3.72;63.88;95221.38;5051883;28;20632;-89
2022/04/12 01:45:45;;;;;;;10.47;4.97;;;;;;;3.55;63.87;95198.91;5034239;28;20686;-89
2022/04/12 01:48:10;;;;;;;10.43;6.10;;;;;;;3.72;63.93;95229.19;5034291;28;20691;-88
2022/04/12 01:50:36;;;;;;;9.53;4.70;;;;;;;3.56;64.27;95197.94;5051912;28;20174;-90
2022/04/12 01:53:01;;;;;;;9.77;5.00;;;;;;;3.90;64.19;95266.34;5052486;28;20175;-90
2022/04/12 01:55:27;;;;;;;9.67;4.73;;;;;;;3.39;64.22;95181.47;5052013;28;20174;-90
2022/04/12 01:57:52;;;;;;;9.07;4.67;;;;;;;3.70;64.24;95239.81;5034227;28;20183;-90
2022/04/12 02:00:17;;;;;;;11.23;5.47;;;;;;;3.90;64.31;95266.34;5051856;28;20182;-90
2022/04/12 02:02:43;;;;;;;9.00;5.87;;;;;;;3.53;64.65;95208.69;5051848;28;20604;-90
2022/04/12 02:05:09;;;;;;;6.87;4.33;;;;;;;3.57;64.46;95217.78;5034012;28;20798;-89
2022/04/12 02:07:34;;;;;;;9.90;5.37;;;;;;;3.34;64.73;95199.34;5052215;28;20292;-90
2022/04/12 02:09:59;;;;;;;9.00;4.97;;;;;;;3.33;65.32;95211.53;5052507;28;20246;-89
2022/04/12 02:12:25;;;;;;;12.37;5.70;;;;;;;3.18;65.76;95181.09;5034095;28;20648;-91
2022/04/12 02:14:50;;;;;;;9.03;4.70;;;;;;;3.29;65.40;95197.22;5052045;28;20166;-90
2022/04/12 02:17:16;;;;;;;6.47;3.97;;;;;;;3.28;64.75;95202.59;5033815;28;20222;-89
2022/04/12 02:19:41;;;;;;;9.00;4.77;;;;;;;3.36;65.08;95200.03;5034236;28;20190;-89
2022/04/12 02:22:07;;;;;;;8.50;4.53;;;;;;;3.20;64.75;95166.94;5051855;28;20175;-89
2022/04/12 02:24:33;;;;;;;10.17;5.20;;;;;;;3.37;64.55;95186.81;5052080;28;20179;-89
2022/04/12 02:26:58;;;;;;;9.03;5.60;;;;;;;3.34;64.43;95184.56;5051547;28;20174;-89
2022/04/12 02:29:24;;;;;;;10.13;5.90;;;;;;;3.53;65.12;95211.28;5033706;28;20603;-89
2022/04/12 02:31:49;;;;;;;8.37;4.40;;;;;;;3.66;63.94;95222.03;5034076;28;20701;-88
2022/04/12 02:34:15;;;;;;;13.00;6.37;;;;;;;3.50;64.13;95191.59;5052301;28;20175;-89
2022/04/12 02:36:40;;;;;;;9.67;5.47;;;;;;;3.31;63.76;95161.47;5033854;28;20170;-89
2022/04/12 02:39:06;;;;;;;9.60;5.30;;;;;;;3.70;63.60;95223.38;5051762;28;20179;-89
2022/04/12 02:41:31;;;;;;;11.00;5.03;;;;;;;3.71;64.05;95222.41;5033778;28;20217;-89
2022/04/12 02:43:57;;;;;;;12.07;6.60;;;;;;;4.09;63.67;95286.91;5051839;28;20198;-88
2022/04/12 02:46:22;;;;;;;12.87;5.73;;;;;;;3.69;64.10;95214.75;5051670;28;20638;-89
2022/04/12 02:48:48;;;;;;;9.40;5.83;;;;;;;3.47;63.90;95191.09;5029800;28;20208;-89
2022/04/12 02:51:13;;;;;;;8.93;5.13;;;;;;;3.46;64.31;95194.69;5033538;28;20171;-89
2022/04/12 02:53:38;;;;;;;12.90;5.40;;;;;;;3.66;64.81;95237.66;5054144;28;20177;-89
2022/04/12 02:56:04;;;;;;;10.30;5.10;;;;;;;3.57;64.90;95233.41;5055168;28;20237;-88
2022/04/12 02:58:29;;;;;;;12.70;6.17;;;;;;;3.47;64.89;95215.31;5036842;28;20191;-89
2022/04/12 03:00:55;;;;;;;20.60;8.63;;;;;;;3.45;64.81;95224.28;5054843;28;20175;-89
2022/04/12 03:03:20;;;;;;;10.07;5.10;;;;;;;3.33;65.48;95211.53;5037286;28;20175;-88
2022/04/12 03:05:46;;;;;;;11.90;5.50;;;;;;;3.38;65.51;95224.88;5037209;28;20183;-88
2022/04/12 03:08:11;;;;;;;12.37;5.70;;;;;;;3.66;65.68;95279.31;5055076;28;20159;-89
2022/04/12 03:10:37;;;;;;;14.20;6.27;;;;;;;3.21;66.68;95211.97;5037589;28;20210;-89
2022/04/12 03:13:02;;;;;;;9.60;5.33;;;;;;;3.36;66.89;95254.66;5054949;28;20194;-89
2022/04/12 03:15:28;;;;;;;10.13;5.80;;;;;;;2.98;67.58;95201.31;5055392;28;20186;-89
2022/04/12 03:17:53;;;;;;;13.37;6.10;;;;;;;2.81;66.87;95171.03;5037812;28;20190;-91
2022/04/12 03:20:19;;;;;;;10.03;5.33;;;;;;;2.81;67.71;95182.25;5055611;28;20206;-90
2022/04/12 03:22:44;;;;;;;10.73;5.80;;;;;;;3.10;67.98;95235.69;5039178;28;20170;-89
2022/04/12 03:25:10;;;;;;;13.40;6.40;;;;;;;2.88;67.79;95204.03;5038017;28;20353;-90
2022/04/12 03:27:36;;;;;;;12.37;5.87;;;;;;;2.94;67.94;95218.22;5037645;28;20221;-88
2022/04/12 03:30:03;;;;;;;11.63;5.83;;;;;;;2.72;67.67;95197.94;5036921;28;20198;-89
2022/04/12 03:32:28;;;;;;;11.23;5.30;;;;;;;2.74;68.04;95206.41;5036790;28;20167;-90
2022/04/12 03:34:54;;;;;;;10.87;5.77;;;;;;;2.85;68.54;95230.38;5055063;28;20166;-90
2022/04/12 03:37:19;;;;;;;12.47;5.17;;;;;;;2.78;68.16;95216.31;5054972;28;20202;-89
2022/04/12 03:39:45;;;;;;;14.43;5.43;;;;;;;2.99;68.28;95241.97;5054604;28;20163;-91
2022/04/12 03:42:11;;;;;;;7.07;4.80;;;;;;;3.18;69.00;95272.13;5054520;28;20545;-89
2022/04/12 03:44:40;;;;;;;9.13;4.60;;;;;;;3.04;68.18;95253.50;5036616;28;20222;-89
2022/04/12 03:47:07;;;;;;;13.13;5.50;;;;;;;2.96;68.45;95237.06;5036545;28;20167;-89
2022/04/12 03:49:33;;;;;;;13.47;5.40;;;;;;;2.87;68.30;95219.78;5054363;28;20272;-90
2022/04/12 03:51:58;;;;;;;16.17;6.67;;;;;;;2.73;68.54;95204.78;5054557;28;20628;-90
2022/04/12 03:54:24;;;;;;;27.90;8.60;;;;;;;2.83;68.51;95227.09;5036390;28;20194;-90
2022/04/12 03:56:50;;;;;;;20.90;7.77;;;;;;;2.82;68.50;95242.84;5036362;28;20619;-90
2022/04/12 03:59:15;;;;;;;30.80;9.00;;;;;;;2.60;69.02;95218.16;5054489;28;20155;-89
2022/04/12 04:01:41;;;;;;;19.83;7.83;;;;;;;2.69;68.40;95221.63;5053757;28;20190;-89
2022/04/12 04:04:06;;;;;;;20.77;7.90;;;;;;;2.73;68.98;95238.56;5035252;28;20287;-88
2022/04/12 04:06:31;;;;;;;23.57;9.47;;;;;;;2.64;68.57;95225.53;5036028;28;20163;-89
2022/04/12 04:08:57;;;;;;;34.33;9.83;;;;;;;2.85;69.16;95255.53;5027508;28;20183;-89
2022/04/12 04:11:22;;;;;;;25.50;11.00;;;;;;;2.77;68.57;95234.69;5035853;28;20537;-89
2022/04/12 04:13:48;;;;;;;24.40;12.40;;;;;;;2.77;68.67;95232.09;5035915;28;20261;-87
2022/04/12 04:16:13;;;;;;;32.10;13.50;;;;;;;2.98;68.28;95261.13;5053455;28;20233;-88
2022/04/12 04:18:38;;;;;;;27.47;11.67;;;;;;;3.02;68.22;95220.84;5053638;28;20202;-91
2022/04/12 04:21:04;;;;;;;27.17;11.77;;;;;;;3.47;67.39;95219.69;5036152;28;20179;-90
2022/04/12 04:23:29;;;;;;;27.80;12.43;;;;;;;4.55;65.36;95306.34;5054312;28;20189;-89
2022/04/12 04:25:55;;;;;;;34.10;12.83;;;;;;;4.98;63.49;95293.09;5035659;28;20262;-87
2022/04/12 04:28:23;;;;;;;39.67;13.30;;;;;;;5.29;61.90;95275.72;5035801;28;20159;-89
2022/04/12 04:30:50;;;;;;;25.13;11.70;;;;;;;5.90;59.94;95290.69;5053442;28;20597;-89
2022/04/12 04:33:17;;;;;;;24.57;11.07;;;;;;;6.52;58.54;95327.25;5035296;28;20186;-86
2022/04/12 04:35:44;;;;;;;21.80;10.73;;;;;;;6.70;56.96;95311.25;5035334;28;20190;-89
2022/04/12 04:38:09;;;;;;;22.27;11.63;;;;;;;7.00;55.63;95280.78;5052866;28;20194;-86
2022/04/12 04:40:35;;;;;;;24.53;11.10;;;;;;;8.03;54.18;95347.09;5053050;28;20167;-87
2022/04/12 04:43:02;;;;;;;20.90;9.10;;;;;;;8.46;52.32;95323.59;5050998;28;20264;-86
2022/04/12 04:45:27;;;;;;;34.93;14.93;;;;;;;8.83;50.66;95278.72;5035222;28;21032;-88
2022/04/12 04:47:58;;;;;;;40.30;15.33;;;;;;;9.60;48.29;95272.59;5035179;28;20229;-88
2022/04/12 04:50:29;;;;;;;38.20;15.47;;;;;;;10.31;46.59;95279.16;5035196;28;20179;-88
2022/04/12 04:52:56;;;;;;;52.17;22.40;;;;;;;11.50;44.33;95342.53;5053433;28;20614;-88
2022/04/12 04:55:22;;;;;;;82.97;66.03;;;;;;;11.99;42.40;95303.28;5035352;28;20179;-88
2022/04/12 04:57:55;;;;;;;1999.90;999.90;;;;;;;12.72;40.67;95282.59;5053317;28;20206;-87
2022/04/12 05:00:22;;;;;;;1999.90;999.90;;;;;;;13.67;39.26;95291.19;5055669;28;20202;-88
2022/04/12 05:02:51;;;;;;;1999.90;999.90;;;;;;;14.95;38.23;95352.88;5053466;28;20171;-88
2022/04/12 05:05:17;;;;;;;1999.90;999.90;;;;;;;15.25;36.23;95283.84;5034082;28;20198;-89
2022/04/12 05:07:45;;;;;;;1999.90;999.90;;;;;;;15.92;35.18;95289.66;5053697;28;20179;-88
2022/04/12 05:10:14;;;;;;;1999.90;999.90;;;;;;;16.56;33.59;95280.59;5035629;28;20229;-89
2022/04/12 05:12:39;;;;;;;1999.90;999.90;;;;;;;17.32;32.88;95311.22;5035712;28;20642;-89
2022/04/12 05:15:05;;;;;;;1999.90;999.90;;;;;;;18.20;31.55;95351.47;5050065;28;20183;-89
2022/04/12 05:17:33;;;;;;;1999.90;999.90;;;;;;;18.80;31.31;95338.09;5055855;28;20749;-89
2022/04/12 05:19:59;;;;;;;1999.90;999.90;;;;;;;19.08;29.50;95289.03;5070225;28;20648;-89
2022/04/12 05:22:26;;;;;;;1999.90;999.90;;;;;;;19.83;27.84;95296.84;5057587;28;20194;-89
2022/04/12 05:24:52;;;;;;;1999.90;999.90;;;;;;;20.16;28.14;95349.19;5058609;28;20190;-87
2022/04/12 05:27:17;;;;;;;1999.90;999.90;;;;;;;20.58;27.17;95333.13;5053159;28;20656;-85
2022/04/12 05:29:43;;;;;;;1999.90;999.90;;;;;;;21.15;26.33;95308.13;5052413;28;20175;-86
2022/04/12 05:32:10;;;;;;;1999.90;999.90;;;;;;;21.78;24.38;95346.25;5051876;28;20190;-87
2022/04/12 05:34:43;;;;;;;1999.90;999.90;;;;;;;21.78;24.57;95325.63;5034070;28;20254;-88
2022/04/12 05:37:09;;;;;;;1999.90;999.90;;;;;;;22.46;24.04;95344.03;5034518;28;20268;-87
2022/04/12 05:39:34;;;;;;;1999.90;999.90;;;;;;;23.09;23.71;95312.88;5033768;28;20202;-87
2022/04/12 05:42:00;;;;;;;1999.90;999.90;;;;;;;23.15;22.65;95276.06;5052312;28;20210;-90
2022/04/12 05:44:27;;;;;;;445.92;419.45;;;;;;;23.23;22.51;95270.09;5034209;28;20256;-86
2022/04/12 05:46:53;;;;;;;1999.90;999.90;;;;;;;23.72;22.04;95317.56;5033989;28;20166;-86
2022/04/12 05:49:18;;;;;;;1999.90;999.90;;;;;;;23.94;21.78;95281.06;5033436;28;20269;-87
2022/04/12 05:51:43;;;;;;;1999.90;999.90;;;;;;;24.21;21.20;95256.34;5033587;28;20547;-86
2022/04/12 05:54:09;;;;;;;1500.88;750.20;;;;;;;24.97;20.28;95322.75;5029731;28;20182;-87
2022/04/12 05:56:34;;;;;;;205.30;190.27;;;;;;;25.07;20.15;95324.50;5030288;28;20179;-86
2022/04/12 05:58:59;;;;;;;1024.20;947.00;;;;;;;25.16;19.85;95328.97;5045804;28;20198;-85
2022/04/12 06:01:25;;;;;;;1888.80;999.90;;;;;;;24.95;19.96;95270.25;5050703;28;20178;-88
2022/04/12 06:03:50;;;;;;;1999.90;999.90;;;;;;;25.42;19.92;95282.75;5033308;28;20167;-87
2022/04/12 06:06:16;;;;;;;1999.90;999.90;;;;;;;25.67;19.14;95316.66;5033481;28;20181;-87
2022/04/12 06:08:41;;;;;;;1999.90;999.90;;;;;;;25.76;19.34;95302.19;5050046;28;20174;-87
2022/04/12 06:11:07;;;;;;;1999.90;999.90;;;;;;;26.33;18.85;95354.13;5027422;28;20186;-86
2022/04/12 06:13:42;;;;;;;1999.90;999.90;;;;;;;26.14;18.54;95348.75;5051431;28;20167;-84
2022/04/12 06:16:07;;;;;;;1999.90;999.90;;;;;;;25.97;19.06;95326.91;5050068;28;20240;-84
2022/04/12 06:18:35;;;;;;;1999.90;999.90;;;;;;;25.51;19.39;95310.66;5051154;28;20307;-82
2022/04/12 06:21:01;;;;;;;1999.90;999.90;;;;;;;25.09;19.49;95315.03;5032740;28;20175;-86
2022/04/12 06:23:28;;;;;;;1999.90;999.90;;;;;;;24.92;19.91;95355.13;5050703;28;20946;-83
2022/04/12 06:25:54;;;;;;;1999.90;999.90;;;;;;;24.37;20.41;95308.91;5049185;28;20189;-83
2022/04/12 06:28:19;;;;;;;1999.90;999.90;;;;;;;24.14;20.48;95295.38;5048843;28;20183;-83
2022/04/12 06:30:45;;;;;;;1999.90;999.90;;;;;;;23.86;21.27;95297.03;5054488;28;20636;-85
2022/04/12 06:33:10;;;;;;;1999.90;999.90;;;;;;;23.76;22.18;95361.66;5054363;28;20702;-84
2022/04/12 06:35:36;;;;;;;1999.90;999.90;;;;;;;23.31;22.82;95355.47;5055085;28;20243;-84
2022/04/12 06:38:02;;;;;;;1999.90;999.90;;;;;;;22.69;22.36;95340.72;5054207;28;20183;-84
2022/04/12 06:40:28;;;;;;;1999.90;999.90;;;;;;;22.19;23.73;95301.44;5036237;28;20179;-84
2022/04/12 06:42:54;;;;;;;1999.90;999.90;;;;;;;21.93;23.27;95305.22;5036514;28;20171;-83
2022/04/12 06:45:19;;;;;;;1999.90;999.90;;;;;;;21.98;23.75;95367.69;5054188;28;20193;-84
2022/04/12 06:47:52;;;;;;;1999.90;999.90;;;;;;;21.50;25.04;95336.88;5053861;28;20171;-83
2022/04/12 06:50:18;;;;;;;1999.90;999.90;;;;;;;21.56;24.81;95345.69;5054475;28;20171;-83
2022/04/12 06:52:44;;;;;;;1999.90;999.90;;;;;;;21.37;26.18;95329.34;5054744;28;20172;-84
2022/04/12 06:55:10;;;;;;;1999.90;999.90;;;;;;;21.42;25.43;95350.78;5054405;28;20175;-82
2022/04/12 06:57:36;;;;;;;1999.90;999.90;;;;;;;20.85;26.04;95294.66;5054195;28;20198;-84
2022/04/12 07:00:04;;;;;;;1999.90;999.90;;;;;;;21.07;26.19;95354.16;5054089;28;20632;-82
2022/04/12 07:02:30;;;;;;;1999.90;999.90;;;;;;;20.82;27.07;95351.41;5051644;28;20175;-84
2022/04/12 07:04:55;;;;;;;1400.45;943.28;;;;;;;20.58;27.02;95314.38;5036057;28;20648;-85
2022/04/12 07:07:21;;;;;;;1410.15;999.90;;;;;;;20.54;27.71;95332.03;5054484;28;20190;-85
2022/04/12 07:09:46;;;;;;;1247.72;999.90;;;;;;;20.30;26.91;95312.13;5054217;28;20193;-85
2022/04/12 07:12:12;;;;;;;1215.60;999.90;;;;;;;20.04;28.08;95351.25;5036078;28;20179;-85
2022/04/12 07:14:37;;;;;;;1040.38;964.80;;;;;;;19.44;27.15;95303.50;5054124;28;20186;-87
2022/04/12 07:17:03;;;;;;;1086.85;999.90;;;;;;;18.84;28.72;95308.03;5035377;28;20249;-83
2022/04/12 07:19:29;;;;;;;771.28;722.92;;;;;;;18.17;28.42;95299.44;5053484;28;20250;-86
2022/04/12 07:21:56;;;;;;;957.90;896.67;;;;;;;18.10;29.00;95306.81;5054280;28;20262;-88
2022/04/12 07:24:21;;;;;;;347.23;331.05;;;;;;;17.96;28.46;95268.25;5054281;28;20187;-85
2022/04/12 07:26:47;;;;;;;120.97;114.97;;;;;;;17.47;26.11;95264.63;5036229;28;20224;-84
2022/04/12 07:29:12;;;;;;;587.33;554.17;;;;;;;16.87;27.84;95284.63;5053246;28;20175;-83
2022/04/12 07:31:38;;;;;;;759.70;714.40;;;;;;;16.91;28.67;95352.28;5053757;28;20159;-81
2022/04/12 07:34:04;;;;;;;897.67;840.55;;;;;;;17.15;29.23;95339.66;5036259;28;20175;-83
2022/04/12 07:36:30;;;;;;;52.33;49.63;;;;;;;17.12;30.08;95302.09;5035996;28;20167;-83
2022/04/12 07:38:55;;;;;;;5.85;4.28;;;;;;;17.29;28.26;95292.28;5052889;28;20202;-85
2022/04/12 07:41:21;;;;;;;4.80;4.40;;;;;;;18.04;27.03;95356.56;5054191;28;20668;-85
2022/04/12 07:43:47;;;;;;;23.48;21.95;;;;;;;17.95;26.75;95309.28;5054247;28;20551;-85
2022/04/12 07:46:13;;;;;;;149.20;142.05;;;;;;;18.20;25.26;95303.47;5034260;28;20186;-83
2022/04/12 07:48:43;;;;;;;200.52;187.95;;;;;;;18.10;26.43;95277.50;5035396;28;20202;-83
2022/04/12 07:51:08;;;;;;;506.33;479.48;;;;;;;18.40;26.82;95299.22;5053236;28;20163;-83
2022/04/12 07:53:34;;;;;;;759.13;712.63;;;;;;;18.57;27.12;95288.50;5052790;28;20198;-85
2022/04/12 07:56:00;;;;;;;382.00;362.17;;;;;;;19.20;26.28;95340.38;5034908;28;20649;-83
2022/04/12 07:58:25;;;;;;;385.25;361.92;;;;;;;19.15;25.00;95282.41;5053479;28;20249;-83
2022/04/12 08:00:51;;;;;;;531.00;500.67;;;;;;;19.50;26.32;95332.69;5053424;28;20179;-88
2022/04/12 08:03:20;;;;;;;335.13;318.63;;;;;;;19.09;28.36;95293.31;5035190;28;20202;-85
2022/04/12 08:05:47;;;;;;;8.55;3.65;;;;;;;19.25;28.97;95340.44;5035565;28;20175;-83
2022/04/12 08:08:12;;;;;;;4.70;3.05;;;;;;;18.75;29.07;95306.84;5053836;28;20266;-86
2022/04/12 08:10:37;;;;;;;5.35;3.22;;;;;;;17.94;27.26;95270.38;5051757;28;20635;-92
2022/04/12 08:13:03;;;;;;;4.88;4.45;;;;;;;17.24;29.11;95246.94;5035185;28;20189;-85
2022/04/12 08:15:28;;;;;;;7.18;2.75;;;;;;;17.27;29.79;95326.31;5035162;28;20182;-87
2022/04/12 08:17:54;;;;;;;3.17;2.53;;;;;;;16.25;29.76;95254.50;5053385;28;20286;-86
2022/04/12 08:20:19;;;;;;;4.63;2.88;;;;;;;16.27;32.91;95272.81;5053874;28;20178;-91
2022/04/12 08:22:45;;;;;;;3.03;2.60;;;;;;;15.77;30.64;95225.59;5053794;28;20179;-91
2022/04/12 08:25:10;;;;;;;3.92;2.65;;;;;;;15.59;33.73;95229.22;5052552;28;20183;-86
2022/04/12 08:27:37;;;;;;;6.80;2.40;;;;;;;16.28;32.82;95316.97;5031102;28;20214;-88
2022/04/12 08:30:06;;;;;;;3.50;2.05;;;;;;;15.76;31.00;95239.91;5035076;28;20168;-86
2022/04/12 08:32:33;;;;;;;2.53;2.05;;;;;;;15.88;30.25;95234.59;5035546;28;20258;-88
2022/04/12 08:34:59;;;;;;;7.07;2.70;;;;;;;16.39;32.10;95310.81;5053228;28;20175;-87
2022/04/12 08:37:24;;;;;;;5.13;2.60;;;;;;;16.59;30.38;95312.03;5053159;28;20198;-87
2022/04/12 08:39:50;;;;;;;2.40;2.08;;;;;;;16.67;30.59;95300.25;5053255;28;20175;-89
2022/04/12 08:42:17;;;;;;;4.57;2.63;;;;;;;16.43;29.00;95218.97;5035463;28;20178;-87
2022/04/12 08:44:45;;;;;;;3.85;2.80;;;;;;;17.08;28.28;95311.59;5051256;28;20172;-88
2022/04/12 08:47:14;;;;;;;5.85;2.05;;;;;;;17.22;29.04;95307.56;5052881;28;20179;-85
2022/04/12 08:49:40;;;;;;;3.97;2.45;;;;;;;17.04;29.48;95251.97;5052622;28;20175;-88
2022/04/12 08:52:11;;;;;;;4.93;3.10;;;;;;;17.33;29.38;95296.06;5051913;28;20209;-87
2022/04/12 08:54:43;;;;;;;4.18;2.90;;;;;;;16.83;29.46;95267.56;5034472;28;20183;-88
2022/04/12 08:57:10;;;;;;;5.07;2.50;;;;;;;17.12;31.03;95299.44;5046044;28;20683;-84
2022/04/12 08:59:36;;;;;;;3.60;2.00;;;;;;;17.03;28.28;95292.91;5047362;28;20179;-85
2022/04/12 09:02:03;;;;;;;4.60;3.03;;;;;;;16.86;28.98;95253.78;5053606;28;20179;-84
2022/04/12 09:04:29;;;;;;;7.60;2.45;;;;;;;16.73;28.54;95253.28;5058950;28;20183;-86
2022/04/12 09:06:58;;;;;;;2.92;2.10;;;;;;;16.38;28.97;95232.94;5041396;28;20178;-86
2022/04/12 09:09:29;;;;;;;5.83;2.83;;;;;;;16.46;30.16;95283.06;5039568;28;20235;-89
2022/04/12 09:11:54;;;;;;;3.17;2.55;;;;;;;16.31;30.49;95284.63;5056987;28;20202;-87
2022/04/12 09:14:20;;;;;;;4.47;2.30;;;;;;;16.02;31.71;95206.72;5037924;28;20640;-89
2022/04/12 09:16:46;;;;;;;4.85;2.10;;;;;;;16.59;30.95;95266.84;5052803;28;20294;-89
2022/04/12 09:19:11;;;;;;;3.38;1.95;;;;;;;16.34;31.08;95209.75;5033090;28;20179;-87
2022/04/12 09:21:46;;;;;;;4.38;2.53;;;;;;;16.75;31.49;95280.44;5051789;28;20182;-85
2022/04/12 09:24:20;;;;;;;4.88;2.50;;;;;;;16.70;32.49;95267.03;5029342;28;20190;-85
2022/04/12 09:26:54;;;;;;;5.07;1.92;;;;;;;16.71;29.53;95264.13;5051532;28;20174;-84
2022/04/12 09:29:27;;;;;;;2.65;1.77;;;;;;;16.49;28.97;95264.00;5042069;28;20564;-84
2022/04/12 09:31:56;;;;;;;3.25;2.05;;;;;;;16.55;32.44;95263.03;5032414;28;20668;-86
2022/04/12 09:34:22;;;;;;;3.78;2.38;;;;;;;16.22;31.36;95229.19;5048599;28;20179;-85
2022/04/12 09:36:48;;;;;;;3.92;1.65;;;;;;;16.37;32.14;95233.97;5031897;28;20175;-88
2022/04/12 09:39:19;;;;;;;3.13;1.98;;;;;;;16.43;31.54;95237.56;5031719;28;20183;-87
2022/04/12 09:41:47;;;;;;;4.20;1.90;;;;;;;16.33;30.44;95258.63;5033446;28;20179;-84
2022/04/12 09:44:17;;;;;;;8.63;3.35;;;;;;;16.12;32.67;95258.22;5020706;28;20657;-91
2022/04/12 09:46:43;;;;;;;4.70;2.20;;;;;;;15.88;32.69;95214.16;5048862;28;20182;-86
2022/04/12 09:49:10;;;;;;;2.77;2.07;;;;;;;16.06;31.23;95250.38;5050049;28;20179;-86
2022/04/12 09:51:38;;;;;;;8.43;2.10;;;;;;;15.82;29.19;95245.13;5051661;28;20212;-86
2022/04/12 09:54:08;;;;;;;2.77;1.80;;;;;;;15.49;31.05;95229.75;5051856;28;20170;-88
2022/04/12 09:56:36;;;;;;;3.03;1.67;;;;;;;15.19;33.64;95176.03;5034231;28;20170;-90
2022/04/12 09:59:07;;;;;;;3.23;2.43;;;;;;;15.20;32.01;95169.69;5034103;28;20191;-85
2022/04/12 10:01:39;;;;;;;2.20;1.90;;;;;;;15.18;32.05;95174.41;5051016;28;20163;-87
2022/04/12 10:04:08;;;;;;;3.93;2.10;;;;;;;14.91;34.07;95144.91;5051244;28;20170;-89
2022/04/12 10:06:40;;;;;;;2.10;1.60;;;;;;;15.04;34.27;95150.00;5051766;28;20578;-91
2022/04/12 10:09:07;;;;;;;4.90;2.00;;;;;;;15.00;33.84;95145.38;5034021;28;20228;-91
2022/04/12 10:11:35;;;;;;;4.53;2.03;;;;;;;15.55;36.00;95200.72;5034019;28;20198;-90
2022/04/12 10:14:01;;;;;;;4.07;1.73;;;;;;;15.39;33.75;95146.50;5051489;28;20175;-91
2022/04/12 10:16:27;;;;;;;1.93;1.73;;;;;;;15.49;34.75;95194.44;5030730;28;20301;-91
2022/04/12 10:18:54;;;;;;;2.00;1.63;;;;;;;15.44;34.13;95176.59;5025869;28;20210;-91
2022/04/12 10:21:22;;;;;;;7.90;2.27;;;;;;;15.18;35.15;95123.22;5046735;28;20533;-90
2022/04/12 10:23:56;;;;;;;2.20;1.90;;;;;;;15.35;33.86;95143.50;5022125;28;20191;-88
2022/04/12 10:26:24;;;;;;;5.63;1.90;;;;;;;15.57;33.91;95174.78;5041181;28;20226;-88
2022/04/12 10:28:52;;;;;;;1.60;1.50;;;;;;;15.40;35.09;95171.97;5021196;28;20175;-91
2022/04/12 10:31:20;;;;;;;3.87;2.23;;;;;;;14.84;35.91;95091.19;5044051;28;20183;-88
2022/04/12 10:34:14;;;;;;;6.77;1.67;;;;;;;15.16;33.84;95173.84;5027884;28;20274;-85
2022/04/12 10:36:56;;;;;;;4.13;1.97;;;;;;;15.17;37.24;95167.50;5044689;28;20179;-89
2022/04/12 10:39:29;;;;;;;2.87;1.47;;;;;;;14.95;33.82;95103.66;5029890;28;20634;-88
2022/04/12 10:41:55;;;;;;;3.80;2.10;;;;;;;15.30;33.91;95156.66;5044046;28;20171;-90
2022/04/12 10:44:21;;;;;;;2.80;1.80;;;;;;;15.05;35.75;95122.41;5044456;28;20187;-87
2022/04/12 10:46:50;;;;;;;6.03;2.07;;;;;;;14.92;36.18;95096.16;5053457;28;20274;-91
2022/04/12 10:49:22;;;;;;;4.40;1.70;;;;;;;14.84;32.24;95088.56;5050684;28;20190;-90
2022/04/12 10:52:00;;;;;;;2.73;1.80;;;;;;;14.76;34.51;95115.41;5032176;28;20207;-92
2022/04/12 10:54:31;;;;;;;3.70;2.37;;;;;;;15.07;36.05;95149.50;5026050;28;20229;-88
2022/04/12 10:57:18;;;;;;;2.30;1.80;;;;;;;15.14;34.10;95145.94;5027876;28;20206;-91
2022/04/12 11:00:14;;;;;;;3.27;1.53;;;;;;;14.97;32.06;95121.97;5032571;28;20193;-89
2022/04/12 11:02:39;;;;;;;4.13;2.40;;;;;;;15.05;34.22;95134.84;5031308;28;20198;-90
2022/04/12 11:05:07;;;;;;;3.07;2.20;;;;;;;14.84;35.73;95093.03;5030169;28;20675;-89
2022/04/12 11:07:35;;;;;;;2.90;2.10;;;;;;;14.86;34.54;95083.03;5047527;28;20186;-89
2022/04/12 11:10:08;;;;;;;1.90;1.57;;;;;;;14.83;34.05;95092.25;5032983;28;20171;-90
2022/04/12 11:12:42;;;;;;;2.73;1.53;;;;;;;15.12;34.54;95127.63;5033822;28;20195;-91
2022/04/12 11:15:40;;;;;;;4.60;1.67;;;;;;;15.20;34.98;95118.50;5054013;28;20194;-90
2022/04/12 11:18:07;;;;;;;2.30;1.30;;;;;;;14.99;33.75;95065.03;4997389;28;20308;-92
2022/04/12 11:20:33;;;;;;;2.07;1.60;;;;;;;15.08;32.62;95065.47;5029910;28;20195;-91
2022/04/12 11:23:02;;;;;;;3.37;1.87;;;;;;;15.42;33.38;95115.00;5047801;28;20191;-90
2022/04/12 11:25:27;;;;;;;4.07;1.67;;;;;;;15.09;33.35;95067.88;5025893;28;20206;-91